createdAt,value
2022-12-15T00:01:50.078Z,99779.84
2022-12-15T00:04:35.945Z,99778.97
2022-12-15T00:07:21.587Z,99773.16
2022-12-15T00:10:06.976Z,99776.22
2022-12-15T00:12:52.673Z,99771.34
2022-12-15T00:15:39.096Z,99771.09
2022-12-15T00:18:25.495Z,99766.41
2022-12-15T00:21:10.903Z,99770.88
2022-12-15T00:23:56.264Z,99766.72
2022-12-15T00:26:43.577Z,99775.22
2022-12-15T00:29:30.332Z,99778.81
2022-12-15T00:32:15.671Z,99775.28
2022-12-15T00:35:01.072Z,99761.94
2022-12-15T00:37:46.649Z,99757.19
2022-12-15T00:40:16.048Z,99751.28
2022-12-15T00:42:42.770Z,99755.53
2022-12-15T00:45:13.029Z,99756.28
2022-12-15T00:47:39.705Z,99760.94
2022-12-15T00:50:25.099Z,99764.53
2022-12-15T00:53:10.562Z,99771.09
2022-12-15T00:55:59.267Z,99764.84
2022-12-15T00:58:45.843Z,99771.03
2022-12-15T01:01:31.578Z,99765.41
2022-12-15T01:04:17.219Z,99759.50
2022-12-15T01:07:02.715Z,99753.50
2022-12-15T01:09:47.890Z,99756.84
2022-12-15T01:12:35.612Z,99757.38
2022-12-15T01:15:21.052Z,99754.13
2022-12-15T01:18:07.583Z,99767.22
2022-12-15T01:20:34.784Z,99755.81
2022-12-15T01:23:02.818Z,99768.41
2022-12-15T01:25:29.599Z,99765.06
2022-12-15T01:27:56.347Z,99773.06
2022-12-15T01:30:25.520Z,99779.41
2022-12-15T01:32:52.794Z,99774.53
2022-12-15T01:35:20.306Z,99779.50
2022-12-15T01:37:46.913Z,99779.59
2022-12-15T01:40:37.474Z,99771.13
2022-12-15T01:43:04.218Z,99764.50
2022-12-15T01:45:30.687Z,99769.56
2022-12-15T01:48:01.104Z,99776.63
2022-12-15T01:50:29.048Z,99782.25
2022-12-15T01:52:55.828Z,99776.53
2022-12-15T01:55:25.646Z,99783.44
2022-12-15T01:57:54.833Z,99777.41
2022-12-15T02:00:21.438Z,99787.53
2022-12-15T02:02:48.276Z,99791.06
2022-12-15T02:05:14.912Z,99796.00
2022-12-15T02:07:42.786Z,99801.28
2022-12-15T02:10:10.363Z,99800.31
2022-12-15T02:12:39.897Z,99805.69
2022-12-15T02:15:37.130Z,99811.34
2022-12-15T02:18:19.583Z,99813.88
2022-12-15T02:20:52.888Z,99814.88
2022-12-15T02:23:47.345Z,99827.50
2022-12-15T02:26:42.420Z,99821.00
2022-12-15T02:29:44.831Z,99826.06
2022-12-15T02:32:14.635Z,99819.25
2022-12-15T02:34:53.028Z,99834.25
2022-12-15T02:37:34.389Z,99839.84
2022-12-15T02:40:01.693Z,99841.00
2022-12-15T02:42:30.557Z,99838.47
2022-12-15T02:45:04.253Z,99848.66
2022-12-15T02:47:46.177Z,99844.03
2022-12-15T02:50:46.690Z,99845.31
2022-12-15T02:53:32.420Z,99852.41
2022-12-15T02:56:19.246Z,99849.31
2022-12-15T02:59:06.542Z,99843.88
2022-12-15T03:01:37.637Z,99839.75
2022-12-15T03:04:05.952Z,99840.63
2022-12-15T03:06:32.587Z,99841.50
2022-12-15T03:08:59.250Z,99824.53
2022-12-15T03:11:25.937Z,99826.75
2022-12-15T03:13:53.952Z,99825.00
2022-12-15T03:16:21.059Z,99822.75
2022-12-15T03:18:47.715Z,99831.34
2022-12-15T03:21:14.457Z,99833.47
2022-12-15T03:23:41.084Z,99839.44
2022-12-15T03:26:07.972Z,99829.91
2022-12-15T03:28:34.780Z,99833.28
2022-12-15T03:31:01.576Z,99827.34
2022-12-15T03:33:28.625Z,99832.19
2022-12-15T03:35:56.026Z,99829.00
2022-12-15T03:38:22.689Z,99830.19
2022-12-15T03:40:49.333Z,99837.78
2022-12-15T03:43:15.980Z,99835.44
2022-12-15T03:45:43.515Z,99835.81
2022-12-15T03:48:10.191Z,99835.44
2022-12-15T03:50:37.476Z,99838.84
2022-12-15T03:53:05.057Z,99843.22
2022-12-15T03:55:31.761Z,99843.41
2022-12-15T03:57:59.201Z,99846.03
2022-12-15T04:00:25.971Z,99850.53
2022-12-15T04:02:53.103Z,99856.78
2022-12-15T04:05:25.686Z,99857.22
2022-12-15T04:07:53.269Z,99863.50
2022-12-15T04:10:20.930Z,99867.69
2022-12-15T04:12:47.580Z,99867.56
2022-12-15T04:15:14.606Z,99875.19
2022-12-15T04:17:41.740Z,99872.22
2022-12-15T04:20:11.858Z,99881.28
2022-12-15T04:22:40.860Z,99880.22
2022-12-15T04:25:27.990Z,99884.16
2022-12-15T04:28:14.406Z,99891.53
2022-12-15T04:31:10.442Z,99893.81
2022-12-15T04:33:59.070Z,99896.91
2022-12-15T04:36:45.763Z,99908.41
2022-12-15T04:39:31.192Z,99912.50
2022-12-15T04:42:18.043Z,99910.38
2022-12-15T04:45:03.808Z,99916.03
2022-12-15T04:47:49.124Z,99918.91
2022-12-15T04:50:34.410Z,99912.66
2022-12-15T04:53:31.319Z,99907.94
2022-12-15T04:56:18.810Z,99911.28
2022-12-15T04:59:05.371Z,99908.75
2022-12-15T05:01:51.316Z,99903.09
2022-12-15T05:04:36.682Z,99899.16
2022-12-15T05:07:22.537Z,99902.06
2022-12-15T05:10:14.627Z,99907.22
2022-12-15T05:13:00.258Z,99907.31
2022-12-15T05:15:45.550Z,99909.31
2022-12-15T05:18:31.049Z,99910.56
2022-12-15T05:21:19.375Z,99916.38
2022-12-15T05:24:04.487Z,99915.91
2022-12-15T05:26:53.060Z,99910.81
2022-12-15T05:29:39.360Z,99932.78
2022-12-15T05:32:07.385Z,99932.34
2022-12-15T05:34:35.035Z,99939.94
2022-12-15T05:37:03.604Z,99931.84
2022-12-15T05:39:30.282Z,99944.38
2022-12-15T05:41:57.114Z,99947.88
2022-12-15T05:44:24.630Z,99945.59
2022-12-15T05:46:51.302Z,99962.56
2022-12-15T05:49:18.591Z,99965.97
2022-12-15T05:51:47.085Z,99959.72
2022-12-15T05:54:17.876Z,99977.03
2022-12-15T05:56:45.399Z,99959.19
2022-12-15T05:59:12.087Z,99947.75
2022-12-15T06:01:38.833Z,99954.69
2022-12-15T06:04:05.629Z,99955.91
2022-12-15T06:06:32.500Z,99968.88
2022-12-15T06:08:59.230Z,99976.13
2022-12-15T06:11:26.269Z,99966.97
2022-12-15T06:13:54.663Z,99976.34
2022-12-15T06:16:22.747Z,99979.00
2022-12-15T06:18:53.088Z,99976.00
2022-12-15T06:21:25.895Z,99964.19
2022-12-15T06:23:53.131Z,99967.31
2022-12-15T06:26:29.888Z,99966.06
2022-12-15T06:28:58.354Z,99982.72
2022-12-15T06:31:25.837Z,99990.16
2022-12-15T06:33:59.230Z,99995.06
2022-12-15T06:36:28.674Z,99990.50
2022-12-15T06:38:59.056Z,99989.97
2022-12-15T06:41:25.678Z,99983.09
2022-12-15T06:43:58.282Z,99984.59
2022-12-15T06:46:26.303Z,99978.09
2022-12-15T06:48:53.287Z,99984.25
2022-12-15T06:51:20.038Z,100006.50
2022-12-15T06:53:50.824Z,100007.94
2022-12-15T06:56:33.551Z,100017.00
2022-12-15T06:59:01.751Z,100009.34
2022-12-15T07:01:28.725Z,100018.06
2022-12-15T07:03:55.943Z,100025.88
2022-12-15T07:06:22.902Z,100029.72
2022-12-15T07:08:54.361Z,100033.06
2022-12-15T07:11:22.185Z,100040.44
2022-12-15T07:13:52.915Z,100041.94
2022-12-15T07:16:20.507Z,100058.22
2022-12-15T07:18:47.292Z,100055.59
2022-12-15T07:21:14.396Z,100042.91
2022-12-15T07:23:57.459Z,100061.56
2022-12-15T07:26:25.103Z,100063.41
2022-12-15T07:28:53.011Z,100059.34
2022-12-15T07:31:19.820Z,100059.50
2022-12-15T07:33:48.367Z,100058.56
2022-12-15T07:36:15.389Z,100057.56
2022-12-15T07:38:42.173Z,100063.25
2022-12-15T07:41:10.112Z,100064.22
2022-12-15T07:43:37.818Z,100069.78
2022-12-15T07:46:05.150Z,100073.41
2022-12-15T07:48:32.376Z,100074.69
2022-12-15T07:51:07.528Z,100084.50
2022-12-15T07:53:36.840Z,100083.38
2022-12-15T07:56:07.966Z,100087.13
2022-12-15T07:58:36.696Z,100081.78
2022-12-15T08:01:05.794Z,100085.22
2022-12-15T08:03:33.298Z,100091.44
2022-12-15T08:06:11.268Z,100090.63
2022-12-15T08:08:38.215Z,100096.59
2022-12-15T08:11:06.223Z,100099.69
2022-12-15T08:16:23.564Z,100100.75
2022-12-15T08:18:50.320Z,100097.06
2022-12-15T08:21:16.916Z,100099.38
2022-12-15T08:23:43.607Z,100104.25
2022-12-15T08:26:13.894Z,100111.50
2022-12-15T08:28:41.445Z,100111.81
2022-12-15T08:31:10.234Z,100121.59
2022-12-15T08:33:37.717Z,100126.19
2022-12-15T08:36:07.756Z,100129.06
2022-12-15T08:38:38.687Z,100136.00
2022-12-15T08:41:09.221Z,100139.38
2022-12-15T08:43:36.442Z,100144.53
2022-12-15T08:46:03.904Z,100155.50
2022-12-15T08:48:30.877Z,100149.63
2022-12-15T08:50:58.839Z,100143.00
2022-12-15T08:53:33.596Z,100149.56
2022-12-15T08:56:05.830Z,100144.53
2022-12-15T08:58:33.140Z,100141.97
2022-12-15T09:01:18.870Z,100143.66
2022-12-15T09:03:50.258Z,100145.78
2022-12-15T09:06:19.079Z,100149.16
2022-12-15T09:08:48.578Z,100159.97
2022-12-15T09:11:17.372Z,100159.25
2022-12-15T09:13:44.520Z,100166.63
2022-12-15T09:16:14.368Z,100160.81
2022-12-15T09:18:52.121Z,100164.03
2022-12-15T09:21:22.500Z,100166.53
2022-12-15T09:23:52.055Z,100168.34
2022-12-15T09:26:20.265Z,100173.63
2022-12-15T09:28:50.462Z,100161.53
2022-12-15T09:31:23.564Z,100160.09
2022-12-15T09:33:52.492Z,100161.28
2022-12-15T09:36:19.650Z,100167.78
2022-12-15T09:38:46.338Z,100166.84
2022-12-15T09:41:12.920Z,100173.41
2022-12-15T09:44:00.738Z,100171.03
2022-12-15T09:46:41.973Z,100181.78
2022-12-15T09:49:22.693Z,100181.63
2022-12-15T09:52:13.103Z,100183.44
2022-12-15T09:54:41.848Z,100179.59
2022-12-15T09:57:24.106Z,100180.44
2022-12-15T10:00:02.517Z,100188.88
2022-12-15T10:02:45.749Z,100179.75
2022-12-15T10:06:07.400Z,100175.78
2022-12-15T10:08:22.895Z,100172.59
2022-12-15T10:10:58.939Z,100177.34
2022-12-15T10:13:32.473Z,100176.84
2022-12-15T10:16:06.305Z,100174.38
2022-12-15T10:18:39.412Z,100180.94
2022-12-15T10:21:09.604Z,100170.72
2022-12-15T10:23:36.984Z,100172.25
2022-12-15T10:26:23.317Z,100167.59
2022-12-15T10:29:11.195Z,100168.91
2022-12-15T10:31:48.508Z,100164.44
2022-12-15T10:34:25.269Z,100163.97
2022-12-15T10:36:52.992Z,100164.50
2022-12-15T10:39:23.522Z,100162.47
2022-12-15T10:42:11.144Z,100158.16
2022-12-15T10:44:39.826Z,100162.16
2022-12-15T10:47:14.661Z,100158.22
2022-12-15T10:49:44.468Z,100162.88
2022-12-15T10:52:37.160Z,100164.84
2022-12-15T10:55:43.936Z,100170.56
2022-12-15T10:58:21.773Z,100171.53
2022-12-15T11:01:08.855Z,100175.22
2022-12-15T11:03:42.841Z,100175.31
2022-12-15T11:06:31.603Z,100172.34
2022-12-15T11:09:10.095Z,100173.06
2022-12-15T11:12:05.598Z,100179.53
2022-12-15T11:14:51.003Z,100174.06
2022-12-15T11:17:22.042Z,100180.16
2022-12-15T11:20:02.326Z,100182.38
2022-12-15T11:22:47.306Z,100178.38
2022-12-15T11:25:26.808Z,100186.09
2022-12-15T11:27:58.751Z,100182.91
2022-12-15T11:30:31.499Z,100184.53
2022-12-15T11:32:59.369Z,100183.66
2022-12-15T11:35:42.786Z,100191.66
2022-12-15T11:38:20.134Z,100193.94
2022-12-15T11:40:46.856Z,100186.22
2022-12-15T11:43:45.223Z,100181.09
2022-12-15T11:46:24.249Z,100182.22
2022-12-15T11:48:56.900Z,100182.50
2022-12-15T11:51:43.325Z,100183.22
2022-12-15T11:54:18.269Z,100184.81
2022-12-15T11:56:53.586Z,100189.00
2022-12-15T11:59:23.253Z,100188.13
2022-12-15T12:02:08.799Z,100188.25
2022-12-15T12:05:01.430Z,100190.66
2022-12-15T12:07:42.715Z,100189.88
2022-12-15T12:10:47.922Z,100184.56
2022-12-15T12:13:26.881Z,100188.13
2022-12-15T12:16:11.744Z,100197.13
2022-12-15T12:18:45.099Z,100203.56
2022-12-15T12:21:22.288Z,100201.63
2022-12-15T12:23:53.721Z,100193.59
2022-12-15T12:26:29.446Z,100197.75
2022-12-15T12:29:13.151Z,100195.63
2022-12-15T12:32:02.182Z,100206.97
2022-12-15T12:34:34.777Z,100212.19
2022-12-15T12:37:14.058Z,100207.16
2022-12-15T12:39:40.839Z,100214.03
2022-12-15T12:42:16.311Z,100218.13
2022-12-15T12:44:43.123Z,100214.75
2022-12-15T12:47:17.959Z,100225.03
2022-12-15T12:49:51.526Z,100218.31
2022-12-15T12:52:23.115Z,100223.28
2022-12-15T12:55:00.815Z,100220.31
2022-12-15T12:57:35.873Z,100215.59
2022-12-15T13:00:13.317Z,100222.00
2022-12-15T13:02:46.990Z,100211.75
2022-12-15T13:05:29.902Z,100209.25
2022-12-15T13:08:05.695Z,100202.50
2022-12-15T13:10:37.192Z,100209.13
2022-12-15T13:13:36.878Z,100211.66
2022-12-15T13:16:25.603Z,100215.91
2022-12-15T13:19:06.951Z,100207.16
2022-12-15T13:21:45.685Z,100212.41
2022-12-15T13:24:35.993Z,100220.94
2022-12-15T13:27:08.592Z,100210.94
2022-12-15T13:29:37.083Z,100208.16
2022-12-15T13:32:04.095Z,100207.03
2022-12-15T13:34:38.920Z,100207.75
2022-12-15T13:37:17.000Z,100211.97
2022-12-15T13:39:56.034Z,100217.13
2022-12-15T13:42:38.829Z,100219.69
2022-12-15T13:45:25.093Z,100215.28
2022-12-15T13:47:54.584Z,100212.75
2022-12-15T13:50:53.380Z,100219.38
2022-12-15T13:53:22.486Z,100220.91
2022-12-15T13:56:17.437Z,100224.38
2022-12-15T13:58:44.855Z,100224.22
2022-12-15T14:01:30.199Z,100223.34
2022-12-15T14:04:06.927Z,100218.19
2022-12-15T14:06:40.482Z,100229.19
2022-12-15T14:09:13.977Z,100221.41
2022-12-15T14:11:57.056Z,100227.16
2022-12-15T14:14:26.088Z,100222.81
2022-12-15T14:16:56.235Z,100222.63
2022-12-15T14:19:22.927Z,100227.56
2022-12-15T14:21:52.110Z,100228.16
2022-12-15T14:24:41.159Z,100230.56
2022-12-15T14:27:08.143Z,100230.28
2022-12-15T14:29:34.829Z,100226.03
2022-12-15T14:32:01.698Z,100228.38
2022-12-15T14:34:39.948Z,100231.69
2022-12-15T14:37:17.951Z,100233.91
2022-12-15T14:39:46.838Z,100241.34
2022-12-15T14:42:23.905Z,100242.78
2022-12-15T14:44:54.932Z,100240.91
2022-12-15T14:47:32.190Z,100239.13
2022-12-15T14:49:58.741Z,100233.63
2022-12-15T14:52:30.655Z,100244.47
2022-12-15T14:54:59.701Z,100247.72
2022-12-15T14:57:29.035Z,100247.13
2022-12-15T14:59:55.762Z,100247.88
2022-12-15T15:02:30.117Z,100246.13
2022-12-15T15:04:59.752Z,100247.25
2022-12-15T15:07:28.692Z,100250.47
2022-12-15T15:09:55.665Z,100244.06
2022-12-15T15:12:24.438Z,100247.38
2022-12-15T15:14:55.133Z,100259.56
2022-12-15T15:17:31.097Z,100254.41
2022-12-15T15:20:00.799Z,100252.00
2022-12-15T15:22:42.366Z,100252.63
2022-12-15T15:25:28.901Z,100256.94
2022-12-15T15:28:03.889Z,100273.78
2022-12-15T15:30:42.853Z,100266.97
2022-12-15T15:33:10.367Z,100266.38
2022-12-15T15:35:37.059Z,100258.94
2022-12-15T15:38:29.647Z,100257.47
2022-12-15T15:40:58.785Z,100261.25
2022-12-15T15:43:26.590Z,100259.16
2022-12-15T15:46:02.817Z,100258.00
2022-12-15T15:48:38.375Z,100260.81
2022-12-15T15:51:05.641Z,100253.19
2022-12-15T15:53:33.618Z,100257.44
2022-12-15T15:56:00.821Z,100261.28
2022-12-15T15:58:27.420Z,100272.72
2022-12-15T16:00:54.049Z,100263.56
2022-12-15T16:03:20.785Z,100262.44
2022-12-15T16:05:47.582Z,100259.06
2022-12-15T16:08:19.762Z,100259.56
2022-12-15T16:10:48.088Z,100268.28
2022-12-15T16:13:16.748Z,100266.88
2022-12-15T16:15:43.420Z,100267.63
2022-12-15T16:18:10.210Z,100262.97
2022-12-15T16:20:38.279Z,100255.91
2022-12-15T16:23:16.902Z,100258.22
2022-12-15T16:25:53.837Z,100258.22
2022-12-15T16:28:28.810Z,100243.19
2022-12-15T16:30:56.202Z,100249.47
2022-12-15T16:33:24.681Z,100251.03
2022-12-15T16:35:53.379Z,100250.06
2022-12-15T16:38:26.133Z,100258.66
2022-12-15T16:40:53.456Z,100271.84
2022-12-15T16:43:24.900Z,100260.25
2022-12-15T16:45:53.850Z,100270.00
2022-12-15T16:48:21.039Z,100277.94
2022-12-15T16:50:53.010Z,100285.75
2022-12-15T16:53:35.639Z,100296.28
2022-12-15T16:56:05.242Z,100278.81
2022-12-15T16:58:34.619Z,100285.72
2022-12-15T17:01:01.740Z,100275.47
2022-12-15T17:03:28.530Z,100283.78
2022-12-15T17:06:01.661Z,100285.25
2022-12-15T17:08:40.103Z,100296.59
2022-12-15T17:11:09.575Z,100296.41
2022-12-15T17:13:45.341Z,100300.59
2022-12-15T17:16:14.536Z,100304.72
2022-12-15T17:18:42.901Z,100310.84
2022-12-15T17:21:15.478Z,100307.19
2022-12-15T17:23:44.637Z,100311.13
2022-12-15T17:26:28.203Z,100319.69
2022-12-15T17:28:59.307Z,100318.97
2022-12-15T17:31:34.723Z,100311.28
2022-12-15T17:34:06.552Z,100321.31
2022-12-15T17:36:33.322Z,100314.44
2022-12-15T17:39:01.122Z,100320.00
2022-12-15T17:41:58.005Z,100323.06
2022-12-15T17:44:37.809Z,100322.03
2022-12-15T17:47:07.236Z,100332.50
2022-12-15T17:49:37.694Z,100330.56
2022-12-15T17:52:19.279Z,100335.78
2022-12-15T17:54:46.092Z,100339.38
2022-12-15T17:57:13.188Z,100330.25
2022-12-15T17:59:39.840Z,100330.81
2022-12-15T18:02:07.261Z,100332.63
2022-12-15T18:04:34.020Z,100323.88
2022-12-15T18:07:02.396Z,100326.44
2022-12-15T18:09:29.766Z,100325.47
2022-12-15T18:11:56.460Z,100326.22
2022-12-15T18:14:23.192Z,100334.38
2022-12-15T18:16:50.029Z,100328.16
2022-12-15T18:19:16.821Z,100337.38
2022-12-15T18:21:44.690Z,100341.28
2022-12-15T18:24:17.244Z,100348.16
2022-12-15T18:26:44.328Z,100347.09
2022-12-15T18:29:17.746Z,100358.31
2022-12-15T18:31:48.429Z,100369.34
2022-12-15T18:34:21.246Z,100375.06
2022-12-15T18:36:48.400Z,100379.78
2022-12-15T18:39:20.864Z,100375.94
2022-12-15T18:41:48.261Z,100381.78
2022-12-15T18:44:26.104Z,100386.56
2022-12-15T18:46:55.163Z,100392.53
2022-12-15T18:49:23.285Z,100379.69
2022-12-15T18:51:50.516Z,100388.25
2022-12-15T18:54:19.213Z,100386.59
2022-12-15T18:56:45.912Z,100387.22
2022-12-15T18:59:17.587Z,100384.50
2022-12-15T19:01:45.801Z,100389.63
2022-12-15T19:04:12.672Z,100391.25
2022-12-15T19:06:41.057Z,100389.06
2022-12-15T19:09:13.567Z,100397.00
2022-12-15T19:11:40.348Z,100399.22
2022-12-15T19:14:33.219Z,100392.19
2022-12-15T19:17:18.573Z,100399.47
2022-12-15T19:20:03.853Z,100399.47
2022-12-15T19:22:31.273Z,100395.09
2022-12-15T19:24:59.071Z,100398.66
2022-12-15T19:27:26.617Z,100401.38
2022-12-15T19:29:54.398Z,100399.53
2022-12-15T19:32:21.628Z,100392.72
2022-12-15T19:34:48.561Z,100400.59
2022-12-15T19:37:29.820Z,100397.84
2022-12-15T19:39:59.837Z,100400.00
2022-12-15T19:42:34.471Z,100412.63
2022-12-15T19:45:01.791Z,100406.84
2022-12-15T19:47:29.660Z,100399.19
2022-12-15T19:49:56.310Z,100395.22
2022-12-15T19:52:23.037Z,100401.94
2022-12-15T19:54:50.877Z,100407.19
2022-12-15T19:57:19.285Z,100414.97
2022-12-15T19:59:48.983Z,100419.44
2022-12-15T20:02:20.433Z,100420.38
2022-12-15T20:04:48.479Z,100417.31
2022-12-15T20:07:35.337Z,100414.81
2022-12-15T20:10:02.165Z,100413.44
2022-12-15T20:12:29.957Z,100418.06
2022-12-15T20:14:56.618Z,100419.81
2022-12-15T20:17:23.254Z,100408.25
2022-12-15T20:19:50.107Z,100404.56
2022-12-15T20:22:19.121Z,100411.81
2022-12-15T20:24:47.405Z,100409.25
2022-12-15T20:27:18.758Z,100405.50
2022-12-15T20:29:51.237Z,100390.41
2022-12-15T20:32:20.245Z,100397.09
2022-12-15T20:34:47.493Z,100392.78
2022-12-15T20:37:30.287Z,100392.84
2022-12-15T20:39:57.904Z,100406.94
2022-12-15T20:42:25.316Z,100399.66
2022-12-15T20:44:51.947Z,100405.88
2022-12-15T20:47:26.076Z,100400.63
2022-12-15T20:49:54.278Z,100403.22
2022-12-15T20:52:24.088Z,100394.16
2022-12-15T20:54:51.794Z,100392.13
2022-12-15T20:57:18.538Z,100394.69
2022-12-15T20:59:45.490Z,100392.34
2022-12-15T21:02:18.442Z,100400.47
2022-12-15T21:04:45.751Z,100407.50
2022-12-15T21:07:12.471Z,100412.47
2022-12-15T21:09:39.644Z,100412.38
2022-12-15T21:12:32.586Z,100421.94
2022-12-15T21:14:59.309Z,100413.47
2022-12-15T21:17:26.229Z,100416.00
2022-12-15T21:19:52.960Z,100416.91
2022-12-15T21:22:27.390Z,100421.00
2022-12-15T21:24:56.293Z,100422.06
2022-12-15T21:27:23.228Z,100418.69
2022-12-15T21:29:52.702Z,100424.47
2022-12-15T21:32:20.590Z,100428.72
2022-12-15T21:34:49.453Z,100439.50
2022-12-15T21:37:24.873Z,100435.19
2022-12-15T21:39:54.508Z,100431.16
2022-12-15T21:42:21.929Z,100432.22
2022-12-15T21:44:50.894Z,100437.50
2022-12-15T21:47:24.881Z,100437.16
2022-12-15T21:49:51.826Z,100433.25
2022-12-15T21:52:19.775Z,100428.94
2022-12-15T21:54:46.420Z,100428.31
2022-12-15T21:57:13.177Z,100432.63
2022-12-15T21:59:41.988Z,100436.28
2022-12-15T22:02:23.400Z,100438.22
2022-12-15T22:04:51.768Z,100439.00
2022-12-15T22:07:18.809Z,100437.13
2022-12-15T22:09:45.441Z,100442.19
2022-12-15T22:12:26.649Z,100445.50
2022-12-15T22:14:53.353Z,100455.00
2022-12-15T22:17:21.778Z,100451.81
2022-12-15T22:19:48.502Z,100459.72
2022-12-15T22:22:15.571Z,100452.34
2022-12-15T22:24:46.000Z,100460.63
2022-12-15T22:27:21.783Z,100456.22
2022-12-15T22:29:49.022Z,100456.22
2022-12-15T22:32:17.054Z,100457.16
2022-12-15T22:34:44.451Z,100458.28
2022-12-15T22:37:11.162Z,100458.28
2022-12-15T22:39:46.481Z,100455.16
2022-12-15T22:42:16.909Z,100445.66
2022-12-15T22:44:46.715Z,100448.47
2022-12-15T22:47:19.482Z,100450.16
2022-12-15T22:49:46.260Z,100444.34
2022-12-15T22:52:18.782Z,100450.38
2022-12-15T22:54:46.298Z,100439.53
2022-12-15T22:57:21.146Z,100444.47
2022-12-15T23:00:00.444Z,100435.00
2022-12-15T23:02:28.973Z,100447.97
2022-12-15T23:04:55.899Z,100437.38
2022-12-15T23:07:22.561Z,100432.94
2022-12-15T23:10:15.349Z,100433.84
2022-12-15T23:12:42.035Z,100431.53
2022-12-15T23:15:27.771Z,100438.94
2022-12-15T23:17:54.559Z,100444.56
2022-12-15T23:20:21.761Z,100446.25
2022-12-15T23:22:48.706Z,100438.16
2022-12-15T23:25:16.185Z,100431.22
2022-12-15T23:27:42.846Z,100440.56
2022-12-15T23:30:09.833Z,100445.81
2022-12-15T23:32:39.886Z,100439.78
2022-12-15T23:35:11.967Z,100438.84
2022-12-15T23:37:38.592Z,100438.56
2022-12-15T23:40:13.570Z,100445.19
2022-12-15T23:42:40.233Z,100445.88
2022-12-15T23:45:13.338Z,100437.41
2022-12-15T23:47:40.105Z,100439.34
2022-12-15T23:50:10.129Z,100440.28
2022-12-15T23:52:37.763Z,100435.59
2022-12-15T23:55:10.603Z,100438.44
2022-12-15T23:57:38.253Z,100448.16
